sensor_id;sensor_type;location;lat;lon;timestamp;pressure;altitude;pressure_sealevel;temperature;humidity
6020;BME280;3038;51.122;6.840;2022-10-10T00:00:42;101281.66;;;10.47;66.95
6020;BME280;3038;51.122;6.840;2022-10-10T00:03:08;101279.28;;;10.44;67.09
6020;BME280;3038;51.122;6.840;2022-10-10T00:05:35;101283.91;;;10.42;67.58
6020;BME280;3038;51.122;6.840;2022-10-10T00:08:01;101278.88;;;10.39;67.53
6020;BME280;3038;51.122;6.840;2022-10-10T00:10:26;101275.28;;;10.40;68.04
6020;BME280;3038;51.122;6.840;2022-10-10T00:12:52;101271.09;;;10.37;67.91
6020;BME280;3038;51.122;6.840;2022-10-10T00:15:17;101279.19;;;10.36;68.30
6020;BME280;3038;51.122;6.840;2022-10-10T00:17:43;101273.88;;;10.36;68.05
6020;BME280;3038;51.122;6.840;2022-10-10T00:20:13;101275.56;;;10.37;68.30
6020;BME280;3038;51.122;6.840;2022-10-10T00:22:39;101271.25;;;10.36;68.04
6020;BME280;3038;51.122;6.840;2022-10-10T00:25:06;101277.66;;;10.33;68.47
6020;BME280;3038;51.122;6.840;2022-10-10T00:27:32;101286.75;;;10.31;67.93
6020;BME280;3038;51.122;6.840;2022-10-10T00:29:58;101282.41;;;10.29;68.41
6020;BME280;3038;51.122;6.840;2022-10-10T00:32:23;101282.72;;;10.26;68.80
6020;BME280;3038;51.122;6.840;2022-10-10T00:34:49;101280.31;;;10.23;68.95
6020;BME280;3038;51.122;6.840;2022-10-10T00:37:14;101279.63;;;10.21;68.80
6020;BME280;3038;51.122;6.840;2022-10-10T00:39:40;101286.75;;;10.21;68.54
6020;BME280;3038;51.122;6.840;2022-10-10T00:42:05;101286.59;;;10.22;68.73
6020;BME280;3038;51.122;6.840;2022-10-10T00:44:30;101289.25;;;10.22;68.60
6020;BME280;3038;51.122;6.840;2022-10-10T00:46:56;101279.75;;;10.20;69.21
6020;BME280;3038;51.122;6.840;2022-10-10T00:49:24;101283.38;;;10.19;69.19
6020;BME280;3038;51.122;6.840;2022-10-10T00:51:53;101280.88;;;10.17;68.89
6020;BME280;3038;51.122;6.840;2022-10-10T00:54:21;101282.81;;;10.15;68.80
6020;BME280;3038;51.122;6.840;2022-10-10T00:56:51;101282.81;;;10.15;68.70
6020;BME280;3038;51.122;6.840;2022-10-10T00:59:18;101277.81;;;10.12;68.85
6020;BME280;3038;51.122;6.840;2022-10-10T01:01:44;101272.53;;;10.12;69.44
6020;BME280;3038;51.122;6.840;2022-10-10T01:04:39;101270.28;;;10.08;69.58
6020;BME280;3038;51.122;6.840;2022-10-10T01:07:08;101272.53;;;10.02;69.82
6020;BME280;3038;51.122;6.840;2022-10-10T01:09:36;101264.75;;;10.01;68.85
6020;BME280;3038;51.122;6.840;2022-10-10T01:12:16;101266.94;;;9.96;70.28
6020;BME280;3038;51.122;6.840;2022-10-10T01:14:50;101268.66;;;9.97;70.30
6020;BME280;3038;51.122;6.840;2022-10-10T01:17:30;101262.78;;;9.93;70.06
6020;BME280;3038;51.122;6.840;2022-10-10T01:22:25;101261.53;;;9.88;69.30
6020;BME280;3038;51.122;6.840;2022-10-10T01:25:16;101258.06;;;9.87;70.66
6020;BME280;3038;51.122;6.840;2022-10-10T01:27:59;101261.81;;;9.85;70.67
6020;BME280;3038;51.122;6.840;2022-10-10T01:30:27;101259.16;;;9.85;70.20
6020;BME280;3038;51.122;6.840;2022-10-10T01:33:00;101250.53;;;9.83;70.50
6020;BME280;3038;51.122;6.840;2022-10-10T01:35:52;101246.31;;;9.80;70.62
6020;BME280;3038;51.122;6.840;2022-10-10T01:41:42;101244.09;;;9.75;70.97
6020;BME280;3038;51.122;6.840;2022-10-10T01:44:09;101240.47;;;9.76;70.63
6020;BME280;3038;51.122;6.840;2022-10-10T01:46:34;101237.97;;;9.75;70.28
6020;BME280;3038;51.122;6.840;2022-10-10T01:49:00;101244.09;;;9.75;70.20
6020;BME280;3038;51.122;6.840;2022-10-10T01:54:45;101231.81;;;9.74;71.09
6020;BME280;3038;51.122;6.840;2022-10-10T01:57:20;101226.78;;;9.71;71.19
6020;BME280;3038;51.122;6.840;2022-10-10T02:05:03;101227.50;;;9.73;70.89
6020;BME280;3038;51.122;6.840;2022-10-10T02:07:42;101227.34;;;9.75;70.21
6020;BME280;3038;51.122;6.840;2022-10-10T02:10:13;101224.84;;;9.73;70.64
6020;BME280;3038;51.122;6.840;2022-10-10T02:12:42;101220.53;;;9.72;70.83
6020;BME280;3038;51.122;6.840;2022-10-10T02:15:13;101219.56;;;9.73;71.17
6020;BME280;3038;51.122;6.840;2022-10-10T02:17:42;101218.84;;;9.71;71.05
6020;BME280;3038;51.122;6.840;2022-10-10T02:20:10;101220.53;;;9.72;71.17
6020;BME280;3038;51.122;6.840;2022-10-10T02:22:40;101222.19;;;9.73;70.91
6020;BME280;3038;51.122;6.840;2022-10-10T02:25:08;101220.66;;;9.71;70.75
6020;BME280;3038;51.122;6.840;2022-10-10T02:30:05;101213.69;;;9.70;70.96
6020;BME280;3038;51.122;6.840;2022-10-10T02:32:35;101212.84;;;9.69;71.00
6020;BME280;3038;51.122;6.840;2022-10-10T02:35:07;101208.53;;;9.68;71.41
6020;BME280;3038;51.122;6.840;2022-10-10T02:37:35;101208.38;;;9.70;71.33
6020;BME280;3038;51.122;6.840;2022-10-10T02:40:03;101196.94;;;9.69;71.67
6020;BME280;3038;51.122;6.840;2022-10-10T02:42:30;101195.28;;;9.68;71.81
6020;BME280;3038;51.122;6.840;2022-10-10T02:44:56;101199.88;;;9.66;71.46
6020;BME280;3038;51.122;6.840;2022-10-10T02:47:22;101195.84;;;9.62;71.39
6020;BME280;3038;51.122;6.840;2022-10-10T02:49:47;101192.50;;;9.60;71.64
6020;BME280;3038;51.122;6.840;2022-10-10T02:52:14;101188.72;;;9.63;71.75
6020;BME280;3038;51.122;6.840;2022-10-10T02:54:40;101190.66;;;9.61;71.43
6020;BME280;3038;51.122;6.840;2022-10-10T02:57:05;101190.81;;;9.59;71.65
6020;BME280;3038;51.122;6.840;2022-10-10T02:59:31;101189.16;;;9.58;71.29
6020;BME280;3038;51.122;6.840;2022-10-10T03:01:56;101184.13;;;9.55;71.30
6020;BME280;3038;51.122;6.840;2022-10-10T03:04:21;101186.78;;;9.55;71.77
6020;BME280;3038;51.122;6.840;2022-10-10T03:06:47;101182.72;;;9.51;72.19
6020;BME280;3038;51.122;6.840;2022-10-10T03:09:12;101178.69;;;9.47;72.11
6020;BME280;3038;51.122;6.840;2022-10-10T03:11:37;101184.00;;;9.47;72.00
6020;BME280;3038;51.122;6.840;2022-10-10T03:14:03;101180.38;;;9.48;72.23
6020;BME280;3038;51.122;6.840;2022-10-10T03:16:28;101186.78;;;9.45;72.64
6020;BME280;3038;51.122;6.840;2022-10-10T03:18:54;101174.94;;;9.40;72.14
6020;BME280;3038;51.122;6.840;2022-10-10T03:21:19;101176.47;;;9.42;72.13
6020;BME280;3038;51.122;6.840;2022-10-10T03:23:44;101181.91;;;9.41;72.46
6020;BME280;3038;51.122;6.840;2022-10-10T03:26:10;101182.75;;;9.41;72.00
6020;BME280;3038;51.122;6.840;2022-10-10T03:28:36;101177.44;;;9.41;72.67
6020;BME280;3038;51.122;6.840;2022-10-10T03:31:02;101176.59;;;9.41;72.47
6020;BME280;3038;51.122;6.840;2022-10-10T03:33:27;101178.56;;;9.39;72.83
6020;BME280;3038;51.122;6.840;2022-10-10T03:35:53;101182.06;;;9.39;72.89
6020;BME280;3038;51.122;6.840;2022-10-10T03:38:18;101182.19;;;9.38;73.15
6020;BME280;3038;51.122;6.840;2022-10-10T03:40:43;101185.53;;;9.40;73.24
6020;BME280;3038;51.122;6.840;2022-10-10T03:43:10;101181.06;;;9.40;72.72
6020;BME280;3038;51.122;6.840;2022-10-10T03:45:36;101175.78;;;9.40;73.36
6020;BME280;3038;51.122;6.840;2022-10-10T03:48:02;101171.88;;;9.44;73.32
6020;BME280;3038;51.122;6.840;2022-10-10T03:50:28;101175.34;;;9.45;73.58
6020;BME280;3038;51.122;6.840;2022-10-10T03:52:53;101177.03;;;9.46;72.96
6020;BME280;3038;51.122;6.840;2022-10-10T03:55:19;101172.03;;;9.43;73.97
6020;BME280;3038;51.122;6.840;2022-10-10T03:57:44;101172.69;;;9.45;73.36
6020;BME280;3038;51.122;6.840;2022-10-10T04:00:10;101170.06;;;9.45;73.52
6020;BME280;3038;51.122;6.840;2022-10-10T04:02:35;101177.19;;;9.44;73.43
6020;BME280;3038;51.122;6.840;2022-10-10T04:05:01;101176.03;;;9.47;73.51
6020;BME280;3038;51.122;6.840;2022-10-10T04:07:27;101168.91;;;9.47;73.64
6020;BME280;3038;51.122;6.840;2022-10-10T04:09:53;101165.44;;;9.47;73.56
6020;BME280;3038;51.122;6.840;2022-10-10T04:12:19;101162.50;;;9.50;73.65
6020;BME280;3038;51.122;6.840;2022-10-10T04:14:44;101161.53;;;9.51;73.44
6020;BME280;3038;51.122;6.840;2022-10-10T04:17:09;101168.50;;;9.52;73.54
6020;BME280;3038;51.122;6.840;2022-10-10T04:19:35;101165.72;;;9.53;73.26
6020;BME280;3038;51.122;6.840;2022-10-10T04:22:00;101165.41;;;9.57;73.54
6020;BME280;3038;51.122;6.840;2022-10-10T04:24:25;101170.59;;;9.58;73.05
6020;BME280;3038;51.122;6.840;2022-10-10T04:26:51;101164.47;;;9.58;73.17
6020;BME280;3038;51.122;6.840;2022-10-10T04:29:16;101166.25;;;9.57;73.45
6020;BME280;3038;51.122;6.840;2022-10-10T04:31:41;101166.41;;;9.56;74.33
6020;BME280;3038;51.122;6.840;2022-10-10T04:34:07;101162.91;;;9.55;73.76
6020;BME280;3038;51.122;6.840;2022-10-10T04:36:32;101162.91;;;9.55;73.88
6020;BME280;3038;51.122;6.840;2022-10-10T04:38:57;101158.44;;;9.56;73.80
6020;BME280;3038;51.122;6.840;2022-10-10T04:41:23;101161.09;;;9.56;74.07
6020;BME280;3038;51.122;6.840;2022-10-10T04:43:49;101166.25;;;9.57;74.30
6020;BME280;3038;51.122;6.840;2022-10-10T04:46:14;101155.66;;;9.57;73.90
6020;BME280;3038;51.122;6.840;2022-10-10T04:48:39;101167.38;;;9.55;74.11
6020;BME280;3038;51.122;6.840;2022-10-10T04:51:05;101171.03;;;9.53;74.22
6020;BME280;3038;51.122;6.840;2022-10-10T04:53:30;101164.88;;;9.53;73.97
6020;BME280;3038;51.122;6.840;2022-10-10T04:55:55;101164.34;;;9.49;74.18
6020;BME280;3038;51.122;6.840;2022-10-10T04:58:21;101169.06;;;9.46;74.09
6020;BME280;3038;51.122;6.840;2022-10-10T05:00:53;101171.03;;;9.44;74.82
6020;BME280;3038;51.122;6.840;2022-10-10T05:03:20;101172.28;;;9.40;74.63
6020;BME280;3038;51.122;6.840;2022-10-10T05:05:46;101171.88;;;9.35;74.46
6020;BME280;3038;51.122;6.840;2022-10-10T05:08:11;101164.91;;;9.34;74.77
6020;BME280;3038;51.122;6.840;2022-10-10T05:10:38;101168.81;;;9.30;74.81
6020;BME280;3038;51.122;6.840;2022-10-10T05:13:04;101169.91;;;9.27;75.49
6020;BME280;3038;51.122;6.840;2022-10-10T05:15:33;101171.75;;;9.26;75.45
6020;BME280;3038;51.122;6.840;2022-10-10T05:17:58;101171.06;;;9.24;75.51
6020;BME280;3038;51.122;6.840;2022-10-10T05:20:24;101180.94;;;9.22;75.26
6020;BME280;3038;51.122;6.840;2022-10-10T05:22:49;101173.56;;;9.16;75.16
6020;BME280;3038;51.122;6.840;2022-10-10T05:25:14;101166.59;;;9.15;75.60
6020;BME280;3038;51.122;6.840;2022-10-10T05:27:40;101168.53;;;9.13;75.63
6020;BME280;3038;51.122;6.840;2022-10-10T05:30:06;101173.00;;;9.13;75.81
6020;BME280;3038;51.122;6.840;2022-10-10T05:32:31;101170.50;;;9.11;76.03
6020;BME280;3038;51.122;6.840;2022-10-10T05:34:56;101173.41;;;9.08;75.92
6020;BME280;3038;51.122;6.840;2022-10-10T05:37:22;101167.16;;;9.09;76.30
6020;BME280;3038;51.122;6.840;2022-10-10T05:39:47;101163.78;;;9.07;76.38
6020;BME280;3038;51.122;6.840;2022-10-10T05:42:13;101165.47;;;9.08;76.94
6020;BME280;3038;51.122;6.840;2022-10-10T05:44:38;101170.75;;;9.08;76.60
6020;BME280;3038;51.122;6.840;2022-10-10T05:47:04;101160.31;;;9.16;76.37
6020;BME280;3038;51.122;6.840;2022-10-10T05:49:29;101163.38;;;9.21;75.77
6020;BME280;3038;51.122;6.840;2022-10-10T05:51:55;101167.28;;;9.17;76.14
6020;BME280;3038;51.122;6.840;2022-10-10T05:54:20;101169.09;;;9.17;76.35
6020;BME280;3038;51.122;6.840;2022-10-10T05:56:46;101168.25;;;9.16;76.35
6020;BME280;3038;51.122;6.840;2022-10-10T05:59:11;101166.59;;;9.15;76.68
6020;BME280;3038;51.122;6.840;2022-10-10T06:01:37;101169.25;;;9.15;76.47
6020;BME280;3038;51.122;6.840;2022-10-10T06:04:02;101168.25;;;9.16;76.76
6020;BME280;3038;51.122;6.840;2022-10-10T06:06:28;101170.91;;;9.16;77.25
6020;BME280;3038;51.122;6.840;2022-10-10T06:08:53;101174.94;;;9.20;76.30
6020;BME280;3038;51.122;6.840;2022-10-10T06:11:19;101168.66;;;9.21;76.77
6020;BME280;3038;51.122;6.840;2022-10-10T06:13:45;101168.53;;;9.23;76.40
6020;BME280;3038;51.122;6.840;2022-10-10T06:16:13;101170.06;;;9.25;76.99
6020;BME280;3038;51.122;6.840;2022-10-10T06:18:39;101169.81;;;9.29;76.43
6020;BME280;3038;51.122;6.840;2022-10-10T06:21:06;101171.16;;;9.33;76.31
6020;BME280;3038;51.122;6.840;2022-10-10T06:23:32;101171.88;;;9.35;76.66
6020;BME280;3038;51.122;6.840;2022-10-10T06:25:57;101178.56;;;9.39;76.51
6020;BME280;3038;51.122;6.840;2022-10-10T06:28:23;101172.69;;;9.45;76.23
6020;BME280;3038;51.122;6.840;2022-10-10T06:30:48;101181.06;;;9.50;76.91
6020;BME280;3038;51.122;6.840;2022-10-10T06:33:16;101181.31;;;9.57;76.46
6020;BME280;3038;51.122;6.840;2022-10-10T06:35:44;101181.88;;;9.60;76.51
6020;BME280;3038;51.122;6.840;2022-10-10T06:38:11;101183.00;;;9.67;76.53
6020;BME280;3038;51.122;6.840;2022-10-10T06:40:37;101190.38;;;9.73;76.01
6020;BME280;3038;51.122;6.840;2022-10-10T06:43:03;101187.16;;;9.79;76.16
6020;BME280;3038;51.122;6.840;2022-10-10T06:45:34;101189.22;;;9.86;76.59
6020;BME280;3038;51.122;6.840;2022-10-10T06:48:00;101188.50;;;9.93;75.65
6020;BME280;3038;51.122;6.840;2022-10-10T06:50:25;101192.13;;;10.02;75.77
6020;BME280;3038;51.122;6.840;2022-10-10T06:52:51;101200.19;;;10.10;75.72
6020;BME280;3038;51.122;6.840;2022-10-10T06:55:16;101199.47;;;10.18;74.96
6020;BME280;3038;51.122;6.840;2022-10-10T06:57:41;101203.22;;;10.25;75.73
6020;BME280;3038;51.122;6.840;2022-10-10T07:00:07;101196.75;;;10.37;75.27
6020;BME280;3038;51.122;6.840;2022-10-10T07:02:32;101194.34;;;10.44;74.89
6020;BME280;3038;51.122;6.840;2022-10-10T07:04:58;101191.63;;;10.53;74.63
6020;BME280;3038;51.122;6.840;2022-10-10T07:07:23;101195.22;;;10.62;74.40
6020;BME280;3038;51.122;6.840;2022-10-10T07:09:48;101194.34;;;10.71;74.09
6020;BME280;3038;51.122;6.840;2022-10-10T07:12:14;101197.09;;;10.79;74.27
6020;BME280;3038;51.122;6.840;2022-10-10T07:14:39;101198.16;;;10.87;73.96
6020;BME280;3038;51.122;6.840;2022-10-10T07:17:04;101202.56;;;10.96;74.00
6020;BME280;3038;51.122;6.840;2022-10-10T07:19:30;101208.66;;;11.06;73.32
6020;BME280;3038;51.122;6.840;2022-10-10T07:21:55;101212.38;;;11.13;73.49
6020;BME280;3038;51.122;6.840;2022-10-10T07:24:20;101205.47;;;11.20;73.20
6020;BME280;3038;51.122;6.840;2022-10-10T07:26:46;101209.88;;;11.29;73.03
6020;BME280;3038;51.122;6.840;2022-10-10T07:29:11;101210.78;;;11.38;72.72
6020;BME280;3038;51.122;6.840;2022-10-10T07:31:37;101217.03;;;11.47;72.72
6020;BME280;3038;51.122;6.840;2022-10-10T07:34:04;101218.38;;;11.51;72.56
6020;BME280;3038;51.122;6.840;2022-10-10T07:36:29;101207.34;;;11.64;72.36
6020;BME280;3038;51.122;6.840;2022-10-10T07:38:55;101212.88;;;11.70;72.07
6020;BME280;3038;51.122;6.840;2022-10-10T07:41:21;101208.06;;;11.74;72.41
6020;BME280;3038;51.122;6.840;2022-10-10T07:43:46;101212.91;;;11.78;71.87
6020;BME280;3038;51.122;6.840;2022-10-10T07:46:17;101210.81;;;11.82;71.82
6020;BME280;3038;51.122;6.840;2022-10-10T07:48:43;101208.69;;;11.86;71.77
6020;BME280;3038;51.122;6.840;2022-10-10T07:51:09;101217.88;;;11.91;71.91
6020;BME280;3038;51.122;6.840;2022-10-10T07:53:34;101213.75;;;11.97;71.69
6020;BME280;3038;51.122;6.840;2022-10-10T07:56:03;101210.09;;;11.98;71.64
6020;BME280;3038;51.122;6.840;2022-10-10T07:58:28;101213.13;;;12.03;71.42
6020;BME280;3038;51.122;6.840;2022-10-10T08:01:04;101208.16;;;12.08;71.50
6020;BME280;3038;51.122;6.840;2022-10-10T08:03:29;101211.88;;;12.15;70.93
6020;BME280;3038;51.122;6.840;2022-10-10T08:05:55;101200.88;;;12.18;71.24
6020;BME280;3038;51.122;6.840;2022-10-10T08:08:20;101209.25;;;12.23;71.17
6020;BME280;3038;51.122;6.840;2022-10-10T08:10:45;101198.28;;;12.26;71.11
6020;BME280;3038;51.122;6.840;2022-10-10T08:13:11;101212.59;;;12.25;70.90
6020;BME280;3038;51.122;6.840;2022-10-10T08:15:38;101208.91;;;12.26;70.76
6020;BME280;3038;51.122;6.840;2022-10-10T08:18:04;101213.59;;;12.32;71.08
6020;BME280;3038;51.122;6.840;2022-10-10T08:20:29;101214.59;;;12.31;71.02
6020;BME280;3038;51.122;6.840;2022-10-10T08:22:54;101211.94;;;12.31;71.23
6020;BME280;3038;51.122;6.840;2022-10-10T08:25:20;101213.28;;;12.35;71.22
6020;BME280;3038;51.122;6.840;2022-10-10T08:27:45;101223.63;;;12.39;71.18
6020;BME280;3038;51.122;6.840;2022-10-10T08:30:11;101209.03;;;12.43;71.51
6020;BME280;3038;51.122;6.840;2022-10-10T08:32:36;101216.38;;;12.49;71.30
6020;BME280;3038;51.122;6.840;2022-10-10T08:35:02;101219.38;;;12.54;71.13
6020;BME280;3038;51.122;6.840;2022-10-10T08:37:28;101220.06;;;12.64;70.81
6020;BME280;3038;51.122;6.840;2022-10-10T08:39:53;101223.13;;;12.77;70.65
6020;BME280;3038;51.122;6.840;2022-10-10T08:42:37;101224.00;;;12.94;70.27
6020;BME280;3038;51.122;6.840;2022-10-10T08:45:10;101219.56;;;13.11;70.35
6020;BME280;3038;51.122;6.840;2022-10-10T08:47:42;101228.59;;;13.26;69.79
6020;BME280;3038;51.122;6.840;2022-10-10T08:50:44;101223.44;;;13.41;69.69
6020;BME280;3038;51.122;6.840;2022-10-10T08:53:19;101230.28;;;13.60;68.67
6020;BME280;3038;51.122;6.840;2022-10-10T08:55:47;101231.28;;;13.75;68.55
6020;BME280;3038;51.122;6.840;2022-10-10T08:58:29;101224.56;;;13.96;67.96
6020;BME280;3038;51.122;6.840;2022-10-10T09:01:03;101236.22;;;14.11;67.83
6020;BME280;3038;51.122;6.840;2022-10-10T09:03:36;101228.84;;;14.29;67.11
6020;BME280;3038;51.122;6.840;2022-10-10T09:08:52;101229.75;;;14.61;66.65
6020;BME280;3038;51.122;6.840;2022-10-10T09:17:21;101236.16;;;15.14;65.14
6020;BME280;3038;51.122;6.840;2022-10-10T09:19:54;101236.00;;;15.38;65.26
6020;BME280;3038;51.122;6.840;2022-10-10T09:22:27;101236.75;;;15.47;64.75
6020;BME280;3038;51.122;6.840;2022-10-10T09:24:59;101231.81;;;15.59;64.58
6020;BME280;3038;51.122;6.840;2022-10-10T09:27:33;101241.41;;;15.76;63.96
6020;BME280;3038;51.122;6.840;2022-10-10T09:30:04;101238.22;;;15.96;63.27
6020;BME280;3038;51.122;6.840;2022-10-10T09:32:42;101240.38;;;16.15;62.92
6020;BME280;3038;51.122;6.840;2022-10-10T09:35:21;101240.38;;;16.44;62.68
6020;BME280;3038;51.122;6.840;2022-10-10T09:37:50;101237.47;;;16.90;62.17
6020;BME280;3038;51.122;6.840;2022-10-10T09:40:24;101235.59;;;17.27;61.12
6020;BME280;3038;51.122;6.840;2022-10-10T09:42:51;101232.34;;;18.03;59.30
6020;BME280;3038;51.122;6.840;2022-10-10T09:45:19;101235.69;;;19.88;55.03
6020;BME280;3038;51.122;6.840;2022-10-10T09:47:47;101223.41;;;21.53;51.53
6020;BME280;3038;51.122;6.840;2022-10-10T09:50:15;101218.44;;;22.74;50.33
6020;BME280;3038;51.122;6.840;2022-10-10T09:52:41;101224.19;;;22.96;47.84
6020;BME280;3038;51.122;6.840;2022-10-10T09:55:33;101224.41;;;23.78;45.29
6020;BME280;3038;51.122;6.840;2022-10-10T10:00:43;101224.00;;;25.42;43.58
6020;BME280;3038;51.122;6.840;2022-10-10T10:03:15;101222.59;;;25.23;41.29
6020;BME280;3038;51.122;6.840;2022-10-10T10:05:44;101219.75;;;23.43;45.53
6020;BME280;3038;51.122;6.840;2022-10-10T10:08:25;101225.78;;;22.85;46.11
6020;BME280;3038;51.122;6.840;2022-10-10T10:10:51;101224.72;;;22.86;47.10
6020;BME280;3038;51.122;6.840;2022-10-10T10:13:21;101220.81;;;22.82;46.11
6020;BME280;3038;51.122;6.840;2022-10-10T10:15:53;101218.63;;;24.33;44.70
6020;BME280;3038;51.122;6.840;2022-10-10T10:18:24;101224.03;;;24.85;43.42
6020;BME280;3038;51.122;6.840;2022-10-10T10:23:35;101214.59;;;26.00;40.47
6020;BME280;3038;51.122;6.840;2022-10-10T10:26:08;101211.66;;;26.02;41.31
6020;BME280;3038;51.122;6.840;2022-10-10T10:28:40;101215.28;;;26.07;40.94
6020;BME280;3038;51.122;6.840;2022-10-10T10:36:47;101226.19;;;26.95;38.68
6020;BME280;3038;51.122;6.840;2022-10-10T10:42:18;101231.69;;;27.00;38.67
6020;BME280;3038;51.122;6.840;2022-10-10T10:49:51;101233.31;;;27.87;36.91
6020;BME280;3038;51.122;6.840;2022-10-10T10:52:45;101232.19;;;26.31;39.78
6020;BME280;3038;51.122;6.840;2022-10-10T11:00:23;101233.09;;;26.59;39.80
6020;BME280;3038;51.122;6.840;2022-10-10T11:05:43;101240.91;;;24.35;42.72
6020;BME280;3038;51.122;6.840;2022-10-10T11:13:50;101234.41;;;26.78;38.95
6020;BME280;3038;51.122;6.840;2022-10-10T11:16:39;101236.88;;;25.47;40.71
6020;BME280;3038;51.122;6.840;2022-10-10T11:21:37;101238.69;;;25.41;40.98
6020;BME280;3038;51.122;6.840;2022-10-10T11:24:13;101229.34;;;25.20;41.46
6020;BME280;3038;51.122;6.840;2022-10-10T11:26:45;101232.44;;;24.20;42.45
6020;BME280;3038;51.122;6.840;2022-10-10T11:29:24;101233.38;;;23.67;44.10
6020;BME280;3038;51.122;6.840;2022-10-10T11:34:25;101224.53;;;23.83;43.65
6020;BME280;3038;51.122;6.840;2022-10-10T11:36:55;101216.53;;;24.23;42.76
6020;BME280;3038;51.122;6.840;2022-10-10T11:39:25;101225.69;;;24.22;42.33
6020;BME280;3038;51.122;6.840;2022-10-10T11:44:42;101227.38;;;23.23;43.45
6020;BME280;3038;51.122;6.840;2022-10-10T11:47:21;101221.19;;;22.86;44.23
6020;BME280;3038;51.122;6.840;2022-10-10T11:49:59;101222.94;;;22.62;44.74
6020;BME280;3038;51.122;6.840;2022-10-10T11:52:55;101220.56;;;22.35;45.46
6020;BME280;3038;51.122;6.840;2022-10-10T11:55:27;101224.53;;;21.89;46.54
6020;BME280;3038;51.122;6.840;2022-10-10T12:00:35;101220.66;;;21.28;48.26
6020;BME280;3038;51.122;6.840;2022-10-10T12:03:01;101218.03;;;21.15;48.69
6020;BME280;3038;51.122;6.840;2022-10-10T12:05:28;101221.25;;;20.99;49.09
6020;BME280;3038;51.122;6.840;2022-10-10T12:08:02;101215.91;;;20.86;49.63
6020;BME280;3038;51.122;6.840;2022-10-10T12:10:39;101224.25;;;20.84;49.58
6020;BME280;3038;51.122;6.840;2022-10-10T12:13:30;101228.03;;;20.70;49.84
6020;BME280;3038;51.122;6.840;2022-10-10T12:16:02;101223.84;;;20.81;50.33
6020;BME280;3038;51.122;6.840;2022-10-10T12:18:37;101232.50;;;20.89;49.94
6020;BME280;3038;51.122;6.840;2022-10-10T12:21:06;101221.28;;;20.92;50.21
6020;BME280;3038;51.122;6.840;2022-10-10T12:23:32;101226.19;;;21.09;50.13
6020;BME280;3038;51.122;6.840;2022-10-10T12:25:58;101230.72;;;21.15;49.75
6020;BME280;3038;51.122;6.840;2022-10-10T12:28:26;101226.59;;;21.44;49.41
6020;BME280;3038;51.122;6.840;2022-10-10T12:47:28;101223.25;;;22.17;47.77
6020;BME280;3038;51.122;6.840;2022-10-10T12:49:57;101216.59;;;21.94;48.28
6020;BME280;3038;51.122;6.840;2022-10-10T12:52:26;101206.81;;;21.93;48.36
6020;BME280;3038;51.122;6.840;2022-10-10T12:54:54;101214.00;;;22.06;48.62
6020;BME280;3038;51.122;6.840;2022-10-10T12:57:41;101205.88;;;22.06;47.74
6020;BME280;3038;51.122;6.840;2022-10-10T13:00:38;101205.84;;;22.13;47.88
6020;BME280;3038;51.122;6.840;2022-10-10T13:05:42;101204.47;;;22.22;47.86
6020;BME280;3038;51.122;6.840;2022-10-10T13:08:14;101198.31;;;22.33;47.78
6020;BME280;3038;51.122;6.840;2022-10-10T13:10:40;101201.41;;;22.37;48.32
6020;BME280;3038;51.122;6.840;2022-10-10T13:15:37;101199.16;;;21.90;48.82
6020;BME280;3038;51.122;6.840;2022-10-10T13:18:03;101208.03;;;21.97;49.63
6020;BME280;3038;51.122;6.840;2022-10-10T13:20:37;101206.38;;;21.96;48.92
6020;BME280;3038;51.122;6.840;2022-10-10T13:23:11;101200.09;;;22.02;49.34
6020;BME280;3038;51.122;6.840;2022-10-10T13:25:38;101197.03;;;22.17;48.88
6020;BME280;3038;51.122;6.840;2022-10-10T13:28:14;101211.81;;;21.96;48.93
6020;BME280;3038;51.122;6.840;2022-10-10T13:30:41;101210.19;;;21.89;49.29
6020;BME280;3038;51.122;6.840;2022-10-10T13:33:14;101217.75;;;21.80;49.06
6020;BME280;3038;51.122;6.840;2022-10-10T13:35:41;101212.84;;;21.70;49.83
6020;BME280;3038;51.122;6.840;2022-10-10T13:38:06;101219.03;;;21.77;49.75
6020;BME280;3038;51.122;6.840;2022-10-10T13:40:32;101211.81;;;21.96;49.88
6020;BME280;3038;51.122;6.840;2022-10-10T13:42:58;101224.63;;;22.44;49.43
6020;BME280;3038;51.122;6.840;2022-10-10T13:48:09;101226.56;;;22.55;48.75
6020;BME280;3038;51.122;6.840;2022-10-10T13:51:02;101217.09;;;22.65;48.15
6020;BME280;3038;51.122;6.840;2022-10-10T14:06:38;101230.41;;;21.86;49.83
6020;BME280;3038;51.122;6.840;2022-10-10T14:11:41;101230.66;;;22.03;49.84
6020;BME280;3038;51.122;6.840;2022-10-10T14:14:16;101222.84;;;22.20;49.89
6020;BME280;3038;51.122;6.840;2022-10-10T14:16:44;101228.91;;;22.15;49.84
6020;BME280;3038;51.122;6.840;2022-10-10T14:19:28;101232.22;;;21.92;49.97
6020;BME280;3038;51.122;6.840;2022-10-10T14:21:54;101235.31;;;21.71;50.64
6020;BME280;3038;51.122;6.840;2022-10-10T14:24:19;101231.34;;;21.73;50.68
6020;BME280;3038;51.122;6.840;2022-10-10T14:26:44;101258.09;;;21.57;50.75
6020;BME280;3038;51.122;6.840;2022-10-10T14:29:12;101257.56;;;21.41;50.87
6020;BME280;3038;51.122;6.840;2022-10-10T14:31:39;101254.94;;;21.28;51.57
6020;BME280;3038;51.122;6.840;2022-10-10T14:34:04;101261.94;;;21.04;51.83
6020;BME280;3038;51.122;6.840;2022-10-10T14:36:30;101254.91;;;20.96;52.20
6020;BME280;3038;51.122;6.840;2022-10-10T14:38:55;101258.28;;;20.78;52.27
6020;BME280;3038;51.122;6.840;2022-10-10T14:41:20;101261.03;;;20.72;52.65
6020;BME280;3038;51.122;6.840;2022-10-10T14:43:45;101267.88;;;20.68;53.14
6020;BME280;3038;51.122;6.840;2022-10-10T14:46:16;101272.09;;;20.50;53.28
6020;BME280;3038;51.122;6.840;2022-10-10T14:48:41;101275.41;;;20.39;53.38
6020;BME280;3038;51.122;6.840;2022-10-10T14:51:09;101292.44;;;20.33;53.44
6020;BME280;3038;51.122;6.840;2022-10-10T14:53:35;101299.94;;;20.18;53.58
6020;BME280;3038;51.122;6.840;2022-10-10T14:56:00;101303.66;;;20.03;53.97
6020;BME280;3038;51.122;6.840;2022-10-10T14:58:26;101305.31;;;19.85;54.54
6020;BME280;3038;51.122;6.840;2022-10-10T15:00:51;101306.97;;;19.79;54.64
6020;BME280;3038;51.122;6.840;2022-10-10T15:03:17;101307.78;;;19.66;55.72
6020;BME280;3038;51.122;6.840;2022-10-10T15:05:42;101314.38;;;19.57;55.95
6020;BME280;3038;51.122;6.840;2022-10-10T15:08:12;101314.81;;;19.61;56.23
6020;BME280;3038;51.122;6.840;2022-10-10T15:10:37;101326.56;;;19.53;56.33